Latest Weather Observations for Darwin Harbour

IDD60901

Issued at 9:11 am CST Tuesday 17 October 2017 (issued every 10 minutes, with the page automatically refreshed every 10 minutes)

About weather observations | Map of Darwin area stations | Latest observations for Darwin area | Other Formats
Station Details ID: 014072 Name: DARWIN NTC AWS Lat: -12.47 Lon: 130.85 Height: 0.0 m
Data from the previous 72 hours. | See also: Recent months for locations in Northern Territory
Date/Time
CST
Temp
°C
App
Temp
°C
Dew
Point
°C
Rel
Hum
%
Delta-T
°C
Wind Press
QNH
hPa
Press
MSL
hPa
Rain since
9am
mm
Dir  Spd
km/h
Gust
km/h
Spd
kts
Gust
kts
17/09:00am - - - - - W 9 13 5 7 1008.4 1008.3 -
17/08:30am - - - - - W 7 9 4 5 1008.3 1008.2 -
17/08:00am - - - - - W 9 13 5 7 1008.0 1007.9 -
17/07:30am - - - - - W 9 17 5 9 1007.3 1007.2 -
17/07:00am - - - - - W 15 20 8 11 1006.8 1006.7 -
17/06:30am - - - - - W 15 20 8 11 1006.4 1006.3 -
17/06:00am - - - - - WNW 13 19 7 10 1006.2 1006.1 -
17/05:30am - - - - - WNW 13 20 7 11 1006.0 1005.9 -
17/05:00am - - - - - WNW 17 22 9 12 1005.6 1005.5 -
17/04:30am - - - - - W 17 24 9 13 1005.4 1005.3 -
17/04:00am - - - - - WNW 15 20 8 11 1005.3 1005.2 -
17/03:30am - - - - - W 17 22 9 12 1005.3 1005.2 -
17/03:00am - - - - - WNW 17 26 9 14 1005.3 1005.2 -
17/02:30am - - - - - WNW 19 28 10 15 1005.2 1005.1 -
17/02:00am - - - - - WNW 20 28 11 15 1005.2 1005.1 -
17/01:30am - - - - - WNW 22 28 12 15 1005.3 1005.2 -
17/01:00am - - - - - WNW 22 28 12 15 1005.5 1005.4 -
17/12:30am - - - - - WNW 22 30 12 16 1005.8 1005.7 -
17/12:00am - - - - - WNW 24 28 13 15 1005.7 1005.6 -
 
Date/Time
CST
Temp
°C
App
Temp
°C
Dew
Point
°C
Rel
Hum
%
Delta-T
°C
Wind Press
QNH
hPa
Press
MSL
hPa
Rain since
9am
mm
Dir  Spd
km/h
Gust
km/h
Spd
kts
Gust
kts
16/11:30pm - - - - - WNW 20 28 11 15 1005.8 1005.7 -
16/11:00pm - - - - - WNW 17 26 9 14 1006.1 1006.0 -
16/10:30pm - - - - - WNW 19 26 10 14 1006.3 1006.2 -
16/10:00pm - - - - - WNW 20 26 11 14 1006.1 1006.0 -
16/09:30pm - - - - - WNW 22 28 12 15 1005.8 1005.7 -
16/09:00pm - - - - - WNW 22 28 12 15 1005.4 1005.3 -
16/08:30pm - - - - - W 22 30 12 16 1005.2 1005.1 -
16/08:00pm - - - - - WSW 15 20 8 11 1005.7 1005.6 -
16/07:30pm - - - - - W 17 20 9 11 1006.0 1005.9 -
16/07:00pm - - - - - W 17 26 9 14 1005.1 1005.0 -
16/06:30pm - - - - - W 17 24 9 13 1004.2 1004.1 -
16/06:00pm - - - - - W 13 19 7 10 1004.2 1004.1 -
16/05:30pm - - - - - WSW 15 19 8 10 1004.1 1004.0 -
16/05:00pm - - - - - WSW 15 20 8 11 1004.2 1004.1 -
16/04:30pm - - - - - WNW 20 28 11 15 1003.9 1003.8 -
16/04:00pm - - - - - WNW 20 32 11 17 1003.7 1003.6 -
16/03:30pm - - - - - NW 24 41 13 22 1003.5 1003.4 -
16/03:00pm - - - - - NW 20 33 11 18 1003.8 1003.7 -
16/02:30pm - - - - - NW 19 30 10 16 1004.2 1004.1 -
16/02:00pm - - - - - WNW 17 28 9 15 1004.6 1004.5 -
16/01:30pm - - - - - NNW 15 28 8 15 1005.1 1005.0 -
16/01:00pm - - - - - NNW 15 24 8 13 1005.6 1005.5 -
16/12:30pm - - - - - NW 11 22 6 12 1006.0 1005.9 -
16/12:00pm - - - - - NW 9 17 5 9 1006.6 1006.5 -
16/11:30am - - - - - WNW 9 15 5 8 1007.1 1007.0 -
16/11:00am - - - - - WNW 7 13 4 7 1007.6 1007.5 -
16/10:30am - - - - - W 4 7 2 4 1007.9 1007.8 -
16/10:00am - - - - - SSW 6 7 3 4 1008.3 1008.2 -
16/09:30am - - - - - WSW 6 7 3 4 1008.3 1008.2 -
16/09:00am - - - - - W 4 7 2 4 1008.5 1008.4 -
16/08:30am - - - - - W 7 11 4 6 1008.4 1008.3 -
16/08:00am - - - - - WNW 6 9 3 5 1008.3 1008.2 -
16/07:30am - - - - - NW 4 9 2 5 1008.2 1008.1 -
16/07:00am - - - - - W 4 4 2 2 1008.2 1008.1 -
16/06:30am - - - - - NE 6 11 3 6 1008.1 1008.0 -
16/06:00am - - - - - NE 7 19 4 10 1007.8 1007.7 -
16/05:30am - - - - - NE 13 28 7 15 1007.9 1007.8 -
16/05:00am - - - - - NNW 6 11 3 6 1007.1 1007.0 -
16/04:30am - - - - - SSW 32 39 17 21 1006.9 1006.8 -
16/04:25am - - - - - SSW 28 39 15 21 1006.8 1006.7 -
16/04:00am - - - - - SW 15 20 8 11 1006.9 1006.8 -
16/03:30am - - - - - W 17 24 9 13 1006.3 1006.2 -
16/03:00am - - - - - WNW 19 24 10 13 1005.9 1005.8 -
16/02:30am - - - - - WNW 11 17 6 9 1006.3 1006.2 -
16/02:00am - - - - - WNW 19 24 10 13 1006.2 1006.1 -
16/01:30am - - - - - WNW 17 24 9 13 1006.5 1006.4 -
16/01:00am - - - - - WNW 11 17 6 9 1007.0 1006.9 -
16/12:30am - - - - - WNW 9 17 5 9 1007.3 1007.2 -
16/12:00am - - - - - WNW 6 9 3 5 1007.8 1007.7 -
 
Date/Time
CST
Temp
°C
App
Temp
°C
Dew
Point
°C
Rel
Hum
%
Delta-T
°C
Wind Press
QNH
hPa
Press
MSL
hPa
Rain since
9am
mm
Dir  Spd
km/h
Gust
km/h
Spd
kts
Gust
kts
15/11:30pm - - - - - NNE 13 19 7 10 1007.5 1007.4 -
15/11:00pm - - - - - NE 9 24 5 13 1008.2 1008.1 -
15/10:30pm - - - - - E 33 43 18 23 1008.7 1008.6 -
15/10:10pm - - - - - ENE 15 43 8 23 1008.5 1008.4 -
15/10:00pm - - - - - W 4 11 2 6 1008.4 1008.3 -
15/09:30pm - - - - - W 11 17 6 9 1007.7 1007.6 -
15/09:00pm - - - - - WNW 13 17 7 9 1007.5 1007.4 -
15/08:30pm - - - - - WNW 17 22 9 12 1006.9 1006.8 -
15/08:00pm - - - - - W 17 22 9 12 1006.2 1006.1 -
15/07:30pm - - - - - WNW 17 24 9 13 1005.8 1005.7 -
15/07:00pm - - - - - WNW 17 20 9 11 1004.9 1004.8 -
15/06:30pm - - - - - W 15 20 8 11 1004.5 1004.4 -
15/06:00pm - - - - - NW 13 19 7 10 1004.5 1004.4 -
15/05:30pm - - - - - NW 13 24 7 13 1004.4 1004.3 -
15/05:00pm - - - - - NNW 15 24 8 13 1004.3 1004.2 -
15/04:30pm - - - - - NW 13 20 7 11 1004.2 1004.1 -
15/04:00pm - - - - - WNW 15 20 8 11 1004.4 1004.3 -
15/03:30pm - - - - - WNW 15 22 8 12 1004.7 1004.6 -
15/03:00pm - - - - - WNW 11 17 6 9 1004.9 1004.8 -
15/02:30pm - - - - - WNW 15 19 8 10 1005.2 1005.1 -
15/02:00pm - - - - - WNW 9 15 5 8 1005.5 1005.4 -
15/01:30pm - - - - - W 7 11 4 6 1005.9 1005.8 -
15/01:00pm - - - - - WNW 9 13 5 7 1006.3 1006.2 -
15/12:30pm - - - - - W 7 11 4 6 1006.7 1006.6 -
15/12:00pm - - - - - W 7 11 4 6 1007.4 1007.3 -
15/11:30am - - - - - W 9 11 5 6 1007.7 1007.6 -
15/11:00am - - - - - WSW 7 11 4 6 1008.1 1008.0 -
15/10:30am - - - - - S 4 7 2 4 1008.4 1008.3 -
15/10:00am - - - - - WSW 4 6 2 3 1008.5 1008.4 -
15/09:30am - - - - - N 4 9 2 5 1008.3 1008.2 -
15/09:00am - - - - - NNW 4 9 2 5 1008.3 1008.2 -
15/08:30am - - - - - NNW 2 7 1 4 1007.9 1007.8 -
15/08:00am - - - - - N 9 15 5 8 1007.5 1007.4 -
15/07:30am - - - - - N 7 11 4 6 1007.5 1007.4 -
15/07:00am - - - - - NW 6 9 3 5 1007.1 1007.0 -
15/06:30am - - - - - NW 6 7 3 4 1006.9 1006.8 -
15/06:00am - - - - - SSW 2 4 1 2 1006.8 1006.7 -
15/05:30am - - - - - SSW 2 2 1 1 1006.6 1006.5 -
15/05:00am - - - - - SSW 2 6 1 3 1006.2 1006.1 -
15/04:30am - - - - - SW 4 7 2 4 1006.3 1006.2 -
15/04:00am - - - - - W 7 11 4 6 1006.6 1006.5 -
15/03:30am - - - - - WSW 9 15 5 8 1006.9 1006.8 -
15/03:00am - - - - - SW 11 19 6 10 1006.8 1006.7 -
15/02:30am - - - - - SW 24 32 13 17 1006.9 1006.8 -
15/02:00am - - - - - S 30 43 16 23 1007.3 1007.2 -
15/01:58am - - - - - S 28 43 15 23 1007.3 1007.2 -
15/01:30am - - - - - NNW 4 9 2 5 1006.9 1006.8 -
15/01:00am - - - - - NNW 7 15 4 8 1007.1 1007.0 -
15/12:30am - - - - - N 9 17 5 9 1007.0 1006.9 -
15/12:00am - - - - - NNW 9 17 5 9 1007.5 1007.4 -
 
Date/Time
CST
Temp
°C
App
Temp
°C
Dew
Point
°C
Rel
Hum
%
Delta-T
°C
Wind Press
QNH
hPa
Press
MSL
hPa
Rain since
9am
mm
Dir  Spd
km/h
Gust
km/h
Spd
kts
Gust
kts
14/11:30pm - - - - - NW 11 22 6 12 1007.8 1007.7 -
14/11:00pm - - - - - NW 9 20 5 11 1007.6 1007.5 -
14/10:30pm - - - - - NW 15 24 8 13 1007.4 1007.3 -
14/10:00pm - - - - - NW 15 26 8 14 1007.5 1007.4 -
14/09:30pm - - - - - WNW 15 28 8 15 1007.2 1007.1 -
14/09:00pm - - - - - NW 11 19 6 10 1006.7 1006.6 -
14/08:30pm - - - - - NW 11 17 6 9 1006.3 1006.2 -
14/08:00pm - - - - - NW 7 13 4 7 1005.9 1005.8 -
14/07:30pm - - - - - WNW 9 15 5 8 1005.6 1005.5 -
14/07:00pm - - - - - NW 9 15 5 8 1005.2 1005.1 -
14/06:30pm - - - - - WNW 13 20 7 11 1004.9 1004.8 -
14/06:00pm - - - - - WNW 17 20 9 11 1004.5 1004.4 -
14/05:30pm - - - - - NW 15 26 8 14 1004.4 1004.3 -
14/05:00pm - - - - - NNW 15 24 8 13 1004.2 1004.1 -
14/04:30pm - - - - - NW 15 30 8 16 1004.3 1004.2 -
14/04:00pm - - - - - NNW 17 28 9 15 1004.5 1004.4 -
14/03:30pm - - - - - NNW 19 28 10 15 1004.6 1004.5 -
14/03:00pm - - - - - NNW 19 28 10 15 1004.7 1004.6 -
14/02:30pm - - - - - NNW 17 28 9 15 1005.0 1004.9 -
14/02:00pm - - - - - NNW 13 26 7 14 1005.5 1005.4 -
14/01:30pm - - - - - WNW 15 26 8 14 1006.0 1005.9 -
14/01:00pm - - - - - WNW 13 24 7 13 1006.6 1006.5 -
14/12:30pm - - - - - WNW 13 19 7 10 1007.4 1007.3 -
14/12:00pm - - - - - WNW 9 15 5 8 1008.0 1007.9 -
14/11:30am - - - - - W 9 15 5 8 1008.5 1008.4 -
14/11:00am - - - - - WSW 7 9 4 5 1008.9 1008.8 -
14/10:30am - - - - - WSW 6 9 3 5 1009.1 1009.0 -
14/10:00am - - - - - WSW 7 9 4 5 1009.2 1009.1 -
14/09:30am - - - - - WSW 6 7 3 4 1009.1 1009.0 -

Latest Capital City Observations: Canberra | Sydney | Melbourne | Brisbane | Adelaide | Perth | Hobart | Darwin

Other Formats:

Comma delimited format used in spreadsheet applications
http://www.bom.gov.au/fwo/IDD60901/IDD60901.95122.axf

JavaScript Object Notation format (JSON) in row-major order
http://www.bom.gov.au/fwo/IDD60901/IDD60901.95122.json